VOH weather

Vohimarina Airport
Antsiranana, Madagascar

Public forecast

Using degrees Celsius for public forecast. Weather courtesy of forecast.io.

Closest aviation weather report (METAR) to Vohimarina Airport

Closest report is Arrachart Airport, 74.4 nm (137.7 km) NW. Retrieved 2019/10/14 04:00 UTC (19 minutes ago):

FMNA 140400Z 14016KT 9999 FEW020 BKN040 26/18 Q1014

Closest aviation forecast (TAF) to Vohimarina Airport

Forecast is more than 12 hours old.

Closest forecast is Ambilobe Airport, 60.4 nm (111.8 km) W. Retrieved 2016/01/24 12:00 UTC (4 years ago):

TAF FMNE 241100Z 2412/2424 32010KT 9999 FEW020 SCT040 BECMG 2412/2414 28010G15KT FEW020 TEMPO 2414/2418 BKN015 FEW020CB BECMG 2418/2420 24005KT